createdAt,value
2022-10-14T00:01:18.871Z,28.25
2022-10-14T00:03:47.352Z,27.63
2022-10-14T00:06:20.299Z,27.48
2022-10-14T00:08:48.466Z,28.45
2022-10-14T00:11:18.570Z,28.90
2022-10-14T00:13:47.087Z,28.58
2022-10-14T00:16:23.235Z,28.60
2022-10-14T00:18:51.945Z,27.92
2022-10-14T00:21:20.240Z,28.83
2022-10-14T00:23:48.420Z,25.75
2022-10-14T00:26:18.896Z,24.88
2022-10-14T00:28:47.210Z,24.88
2022-10-14T00:31:15.980Z,22.00
2022-10-14T00:33:47.951Z,21.50
2022-10-14T00:36:18.023Z,20.77
2022-10-14T00:38:46.434Z,22.73
2022-10-14T00:41:17.837Z,22.02
2022-10-14T00:44:00.279Z,22.23
2022-10-14T00:46:30.130Z,23.52
2022-10-14T00:49:08.929Z,21.33
2022-10-14T00:51:39.630Z,20.48
2022-10-14T00:54:08.487Z,21.30
2022-10-14T00:56:37.245Z,22.33
2022-10-14T00:59:09.144Z,21.77
2022-10-14T01:01:37.137Z,21.52
2022-10-14T01:04:07.525Z,24.30
2022-10-14T01:06:45.608Z,21.42
2022-10-14T01:09:25.086Z,21.77
2022-10-14T01:12:27.621Z,21.65
2022-10-14T01:14:59.919Z,21.75
2022-10-14T01:17:37.331Z,21.27
2022-10-14T01:20:39.823Z,22.42
2022-10-14T01:23:28.544Z,22.08
2022-10-14T01:26:03.206Z,22.00
2022-10-14T01:28:42.583Z,22.45
2022-10-14T01:31:14.249Z,21.27
2022-10-14T01:33:46.115Z,22.30
2022-10-14T01:36:21.531Z,21.85
2022-10-14T01:38:52.983Z,22.02
2022-10-14T01:41:24.455Z,21.30
2022-10-14T01:43:53.685Z,23.27
2022-10-14T01:46:25.758Z,22.42
2022-10-14T01:48:57.304Z,22.20
2022-10-14T01:51:30.432Z,21.70
2022-10-14T01:54:02.909Z,22.00
2022-10-14T01:56:36.971Z,22.52
2022-10-14T01:59:09.647Z,22.02
2022-10-14T02:04:15.850Z,22.58
2022-10-14T02:06:49.697Z,24.38
2022-10-14T02:09:23.865Z,23.52
2022-10-14T02:12:04.020Z,24.23
2022-10-14T02:14:40.552Z,23.15
2022-10-14T02:17:18.528Z,25.80
2022-10-14T02:19:53.671Z,26.23
2022-10-14T02:22:29.879Z,25.35
2022-10-14T02:25:01.628Z,25.85
2022-10-14T02:27:30.428Z,29.35
2022-10-14T02:30:00.631Z,28.30
2022-10-14T02:32:30.879Z,28.90
2022-10-14T02:35:00.687Z,28.85
2022-10-14T02:37:30.689Z,28.80
2022-10-14T02:40:04.232Z,27.20
2022-10-14T02:42:33.351Z,28.17
2022-10-14T02:45:04.252Z,28.33
2022-10-14T02:47:33.650Z,29.27
2022-10-14T02:50:01.664Z,29.95
2022-10-14T02:52:31.012Z,30.50
2022-10-14T02:54:59.288Z,30.40
2022-10-14T02:57:27.320Z,27.85
2022-10-14T02:59:58.235Z,28.38
2022-10-14T03:02:26.520Z,28.75
2022-10-14T03:04:56.030Z,28.08
2022-10-14T03:07:25.060Z,26.70
2022-10-14T03:09:54.456Z,28.83
2022-10-14T03:12:24.965Z,28.25
2022-10-14T03:14:55.739Z,26.60
2022-10-14T03:17:25.991Z,27.98
2022-10-14T03:19:59.301Z,28.60
2022-10-14T03:22:28.545Z,29.30
2022-10-14T03:24:57.502Z,26.83
2022-10-14T03:27:35.219Z,26.75
2022-10-14T03:30:10.020Z,28.55
2022-10-14T03:32:45.700Z,27.88
2022-10-14T03:35:33.058Z,26.80
2022-10-14T03:38:03.995Z,28.25
2022-10-14T03:40:35.619Z,26.52
2022-10-14T03:43:08.908Z,26.00
2022-10-14T03:45:46.536Z,25.25
2022-10-14T03:48:17.405Z,25.40
2022-10-14T03:50:48.119Z,25.27
2022-10-14T03:53:16.611Z,25.30
2022-10-14T03:55:45.291Z,24.38
2022-10-14T03:58:14.469Z,22.93
2022-10-14T04:00:49.353Z,23.40
2022-10-14T04:03:37.558Z,24.95
2022-10-14T04:06:07.307Z,23.23
2022-10-14T04:08:35.243Z,25.85
2022-10-14T04:11:16.841Z,25.40
2022-10-14T04:13:46.401Z,25.65
2022-10-14T04:16:16.008Z,25.15
2022-10-14T04:19:03.736Z,23.55
2022-10-14T04:21:33.988Z,25.42
2022-10-14T04:24:07.396Z,23.45
2022-10-14T04:26:42.543Z,23.27
2022-10-14T04:29:17.534Z,23.13
2022-10-14T04:31:56.742Z,24.92
2022-10-14T04:34:25.190Z,23.45
2022-10-14T04:36:55.783Z,23.40
2022-10-14T04:39:35.567Z,22.05
2022-10-14T04:42:03.772Z,24.30
2022-10-14T04:44:32.030Z,22.98
2022-10-14T04:47:02.240Z,22.40
2022-10-14T04:49:31.278Z,24.30
2022-10-14T04:52:13.350Z,22.67
2022-10-14T04:54:48.944Z,24.60
2022-10-14T04:57:16.884Z,23.83
2022-10-14T04:59:48.939Z,23.60
2022-10-14T05:02:37.127Z,22.48
2022-10-14T05:05:05.544Z,22.70
2022-10-14T05:07:38.773Z,22.65
2022-10-14T05:10:30.481Z,22.85
2022-10-14T05:12:58.726Z,22.10
2022-10-14T05:15:30.937Z,22.48
2022-10-14T05:18:06.411Z,22.25
2022-10-14T05:20:50.597Z,21.65
2022-10-14T05:23:25.108Z,21.75
2022-10-14T05:25:53.533Z,21.48
2022-10-14T05:28:23.329Z,21.65
2022-10-14T05:30:51.861Z,21.63
2022-10-14T05:33:21.108Z,20.25
2022-10-14T05:36:04.668Z,22.13
2022-10-14T05:38:36.603Z,21.63
2022-10-14T05:41:05.250Z,21.90
2022-10-14T05:43:33.700Z,22.33
2022-10-14T05:46:04.566Z,21.60
2022-10-14T05:48:37.865Z,23.92
2022-10-14T05:51:07.134Z,22.92
2022-10-14T05:53:39.949Z,23.25
2022-10-14T05:56:13.262Z,21.73
2022-10-14T05:58:42.132Z,22.67
2022-10-14T06:01:11.913Z,21.35
2022-10-14T06:03:42.528Z,23.10
2022-10-14T06:06:13.297Z,22.15
2022-10-14T06:08:43.187Z,23.10
2022-10-14T06:11:11.126Z,20.83
2022-10-14T06:13:39.977Z,22.38
2022-10-14T06:16:10.936Z,21.45
2022-10-14T06:18:39.369Z,20.63
2022-10-14T06:21:08.260Z,19.92
2022-10-14T06:23:36.656Z,20.27
2022-10-14T06:26:08.995Z,21.65
2022-10-14T06:28:37.615Z,20.92
2022-10-14T06:31:06.972Z,19.85
2022-10-14T06:33:35.067Z,19.15
2022-10-14T06:36:04.143Z,19.60
2022-10-14T06:38:32.256Z,19.97
2022-10-14T06:41:00.396Z,19.02
2022-10-14T06:43:30.060Z,19.48
2022-10-14T06:45:58.790Z,18.88
2022-10-14T06:48:26.759Z,19.67
2022-10-14T06:50:54.837Z,18.05
2022-10-14T06:53:22.737Z,16.55
2022-10-14T06:55:50.708Z,16.63
2022-10-14T06:58:18.567Z,17.30
2022-10-14T07:00:48.392Z,17.38
2022-10-14T07:03:16.530Z,18.15
2022-10-14T07:05:44.481Z,17.80
2022-10-14T07:08:15.287Z,17.23
2022-10-14T07:10:44.014Z,18.15
2022-10-14T07:13:11.924Z,17.55
2022-10-14T07:15:40.005Z,17.23
2022-10-14T07:18:09.767Z,18.40
2022-10-14T07:20:37.741Z,18.50
2022-10-14T07:23:05.651Z,18.45
2022-10-14T07:25:34.019Z,17.83
2022-10-14T07:28:01.991Z,17.63
2022-10-14T07:30:30.107Z,17.45
2022-10-14T07:32:57.966Z,19.13
2022-10-14T07:35:27.819Z,17.52
2022-10-14T07:37:56.427Z,17.52
2022-10-14T07:40:24.728Z,17.65
2022-10-14T07:42:53.035Z,17.45
2022-10-14T07:45:21.317Z,16.90
2022-10-14T07:47:51.879Z,16.80
2022-10-14T07:50:20.801Z,15.60
2022-10-14T07:52:50.322Z,16.42
2022-10-14T07:55:18.350Z,16.15
2022-10-14T07:57:46.302Z,16.42
2022-10-14T08:00:14.553Z,15.18
2022-10-14T08:02:42.506Z,16.63
2022-10-14T08:05:36.490Z,16.60
2022-10-14T08:07:59.852Z,16.13
2022-10-14T08:10:27.952Z,14.85
2022-10-14T08:12:57.814Z,15.10
2022-10-14T08:15:28.569Z,15.50
2022-10-14T08:17:56.520Z,14.45
2022-10-14T08:20:24.423Z,13.73
2022-10-14T08:22:52.584Z,14.45
2022-10-14T08:25:22.392Z,13.25
2022-10-14T08:30:19.183Z,13.13
2022-10-14T08:32:47.244Z,11.80
2022-10-14T08:35:16.624Z,11.40
2022-10-14T08:37:44.543Z,11.30
2022-10-14T08:40:17.266Z,12.38
2022-10-14T08:42:55.329Z,13.93
2022-10-14T08:45:31.165Z,12.55
2022-10-14T08:48:01.345Z,13.30
2022-10-14T08:50:37.031Z,11.77
2022-10-14T08:53:11.362Z,10.07
2022-10-14T08:55:42.193Z,9.88
2022-10-14T08:58:15.685Z,8.95
2022-10-14T09:00:46.871Z,9.02
2022-10-14T09:03:22.625Z,9.60
2022-10-14T09:05:58.593Z,9.40
2022-10-14T09:08:31.847Z,8.85
2022-10-14T09:11:01.383Z,7.80
2022-10-14T09:13:35.625Z,8.32
2022-10-14T09:16:07.182Z,7.43
2022-10-14T09:18:39.691Z,7.55
2022-10-14T09:21:34.124Z,7.72
2022-10-14T09:24:15.274Z,7.22
2022-10-14T09:26:45.073Z,6.28
2022-10-14T09:29:25.285Z,7.63
2022-10-14T09:31:54.588Z,11.80
2022-10-14T09:34:30.645Z,7.60
2022-10-14T09:37:01.868Z,6.88
2022-10-14T09:39:31.055Z,7.05
2022-10-14T09:42:00.540Z,7.80
2022-10-14T09:44:29.841Z,7.38
2022-10-14T09:46:59.375Z,7.40
2022-10-14T09:49:36.797Z,6.70
2022-10-14T09:52:06.771Z,5.97
2022-10-14T09:54:35.498Z,7.13
2022-10-14T09:57:07.392Z,7.83
2022-10-14T09:59:39.869Z,5.93
2022-10-14T10:02:22.134Z,5.25
2022-10-14T10:04:52.325Z,5.13
2022-10-14T10:07:32.523Z,3.92
2022-10-14T10:10:02.576Z,4.05
2022-10-14T10:12:32.692Z,4.03
2022-10-14T10:15:04.852Z,3.80
2022-10-14T10:17:36.120Z,3.88
2022-10-14T10:20:12.419Z,3.95
2022-10-14T10:22:41.824Z,3.50
2022-10-14T10:25:28.245Z,3.50
2022-10-14T10:28:00.491Z,3.10
2022-10-14T10:30:33.234Z,4.90
2022-10-14T10:33:21.283Z,3.88
2022-10-14T10:36:11.170Z,4.20
2022-10-14T10:38:46.455Z,4.22
2022-10-14T10:41:28.488Z,3.63
2022-10-14T10:44:26.731Z,4.25
2022-10-14T10:47:09.600Z,4.18
2022-10-14T10:50:08.363Z,3.05
2022-10-14T10:52:50.607Z,3.30
2022-10-14T10:55:27.065Z,3.05
2022-10-14T10:58:07.523Z,3.08
2022-10-14T11:00:49.637Z,2.40
2022-10-14T11:03:34.295Z,2.55
2022-10-14T11:06:10.167Z,1.67
2022-10-14T11:09:08.598Z,2.10
2022-10-14T11:12:12.739Z,2.15
2022-10-14T11:17:52.410Z,1.80
2022-10-14T11:20:33.805Z,2.20
2022-10-14T11:23:20.163Z,1.75
2022-10-14T11:25:56.564Z,1.67
2022-10-14T11:28:36.604Z,1.38
2022-10-14T11:31:10.116Z,1.20
2022-10-14T11:33:59.317Z,1.23
2022-10-14T11:36:37.727Z,0.85
2022-10-14T11:39:28.702Z,0.85
2022-10-14T11:42:11.320Z,0.95
2022-10-14T11:44:40.446Z,0.70
2022-10-14T11:47:13.921Z,0.95
2022-10-14T11:49:47.135Z,0.60
2022-10-14T11:52:22.424Z,0.70
2022-10-14T11:54:56.543Z,0.90
2022-10-14T11:57:31.947Z,0.80
2022-10-14T12:00:21.066Z,0.85
2022-10-14T12:02:57.201Z,0.80
2022-10-14T12:05:36.595Z,0.70
2022-10-14T12:08:16.953Z,0.80
2022-10-14T12:10:48.075Z,0.80
2022-10-14T12:13:20.876Z,0.68
2022-10-14T12:15:51.639Z,0.70
2022-10-14T12:18:20.411Z,0.70
2022-10-14T12:20:53.448Z,0.57
2022-10-14T12:23:30.865Z,0.73
2022-10-14T12:26:05.351Z,0.60
2022-10-14T12:28:38.652Z,0.57
2022-10-14T12:31:35.489Z,0.75
2022-10-14T12:34:34.808Z,0.70
2022-10-14T12:37:37.827Z,0.80
2022-10-14T12:40:30.175Z,0.70
2022-10-14T12:43:07.348Z,0.90
2022-10-14T12:45:36.869Z,0.75
2022-10-14T12:48:13.379Z,0.80
2022-10-14T12:50:42.687Z,0.60
2022-10-14T12:53:23.427Z,0.75
2022-10-14T12:55:57.364Z,0.70
2022-10-14T12:58:31.711Z,0.45
2022-10-14T13:01:03.661Z,0.47
2022-10-14T13:03:35.675Z,0.50
2022-10-14T13:06:43.374Z,0.50
2022-10-14T13:09:42.203Z,0.75
2022-10-14T13:12:45.270Z,0.50
2022-10-14T13:15:36.972Z,0.70
2022-10-14T13:18:51.321Z,0.50
2022-10-14T13:21:48.656Z,0.63
2022-10-14T13:24:21.872Z,0.60
2022-10-14T13:27:07.123Z,0.50
2022-10-14T13:29:48.703Z,0.60
2022-10-14T13:32:31.407Z,0.43
2022-10-14T13:35:11.725Z,0.40
2022-10-14T13:37:45.707Z,0.30
2022-10-14T13:40:22.721Z,0.50
2022-10-14T13:42:54.285Z,0.45
2022-10-14T13:45:29.798Z,0.40
2022-10-14T13:47:58.026Z,0.38
2022-10-14T13:50:33.093Z,0.38
2022-10-14T13:53:04.947Z,0.40
2022-10-14T13:55:45.028Z,0.60
2022-10-14T13:58:15.874Z,0.40
2022-10-14T14:00:53.737Z,0.55
2022-10-14T14:03:25.825Z,0.70
2022-10-14T14:05:55.291Z,0.50
2022-10-14T14:08:39.873Z,0.50
2022-10-14T14:11:16.930Z,0.65
2022-10-14T14:13:55.896Z,0.60
2022-10-14T14:16:31.270Z,0.55
2022-10-14T14:19:14.868Z,0.60
2022-10-14T14:21:43.446Z,0.55
2022-10-14T14:24:23.587Z,0.70
2022-10-14T14:26:55.030Z,0.43
2022-10-14T14:29:27.979Z,0.70
2022-10-14T14:32:07.130Z,0.68
2022-10-14T14:34:39.045Z,0.65
2022-10-14T14:37:37.087Z,0.90
2022-10-14T14:40:06.869Z,0.98
2022-10-14T14:42:37.559Z,0.80
2022-10-14T14:45:08.805Z,1.00
2022-10-14T14:47:39.466Z,1.00
2022-10-14T14:53:02.306Z,0.90
2022-10-14T14:55:41.545Z,0.80
2022-10-14T14:58:25.094Z,1.17
2022-10-14T15:00:54.911Z,1.35
2022-10-14T15:03:27.580Z,1.20
2022-10-14T15:06:00.490Z,1.10
2022-10-14T15:08:31.242Z,1.40
2022-10-14T15:11:01.278Z,1.20
2022-10-14T15:13:45.710Z,1.75
2022-10-14T15:16:13.731Z,1.80
2022-10-14T15:18:43.635Z,1.98
2022-10-14T15:24:03.160Z,2.45
2022-10-14T15:26:34.557Z,2.53
2022-10-14T15:32:04.460Z,2.80
2022-10-14T15:34:35.671Z,2.70
2022-10-14T15:37:03.669Z,3.33
2022-10-14T15:39:31.624Z,3.45
2022-10-14T15:41:59.756Z,3.53
2022-10-14T15:44:28.020Z,3.40
2022-10-14T15:47:15.414Z,4.22
2022-10-14T15:49:47.466Z,4.20
2022-10-14T15:52:20.574Z,4.32
2022-10-14T15:54:51.219Z,5.13
2022-10-14T15:57:19.110Z,5.15
2022-10-14T15:59:52.003Z,5.97
2022-10-14T16:02:24.115Z,5.35
2022-10-14T16:07:42.493Z,5.88
2022-10-14T16:10:14.320Z,6.22
2022-10-14T16:12:42.795Z,5.68
2022-10-14T16:15:20.979Z,5.93
2022-10-14T16:17:52.081Z,5.65
2022-10-14T16:20:23.690Z,6.30
2022-10-14T16:22:51.616Z,6.50
2022-10-14T16:25:24.128Z,6.55
2022-10-14T16:27:52.618Z,7.50
2022-10-14T16:30:20.789Z,7.32
2022-10-14T16:32:48.951Z,6.82
2022-10-14T16:35:17.096Z,7.22
2022-10-14T16:37:48.891Z,7.72
2022-10-14T16:40:16.907Z,7.93
2022-10-14T16:42:45.191Z,8.52
2022-10-14T16:45:13.777Z,7.97
2022-10-14T16:47:42.139Z,8.57
2022-10-14T16:50:11.659Z,8.18
2022-10-14T16:52:58.897Z,9.02
2022-10-14T16:55:31.579Z,9.00
2022-10-14T16:57:59.506Z,8.60
2022-10-14T17:00:27.470Z,8.80
2022-10-14T17:02:55.423Z,9.10
2022-10-14T17:05:23.312Z,9.10
2022-10-14T17:07:51.195Z,8.45
2022-10-14T17:10:21.299Z,9.07
2022-10-14T17:12:50.606Z,8.93
2022-10-14T17:15:18.724Z,9.52
2022-10-14T17:17:46.652Z,9.27
2022-10-14T17:20:14.661Z,9.55
2022-10-14T17:22:42.954Z,9.75
2022-10-14T17:27:40.553Z,10.00
2022-10-14T17:30:11.163Z,11.15
2022-10-14T17:32:39.046Z,10.95
2022-10-14T17:35:11.368Z,11.23
2022-10-14T17:37:42.461Z,10.50
2022-10-14T17:40:11.222Z,10.40
2022-10-14T17:45:10.932Z,9.95
2022-10-14T17:47:39.079Z,10.32
2022-10-14T17:50:08.953Z,10.93
2022-10-14T17:55:05.351Z,9.75
2022-10-14T17:57:33.268Z,10.02
2022-10-14T18:00:01.303Z,10.20
2022-10-14T18:02:30.645Z,10.30
2022-10-14T18:04:58.621Z,10.15
2022-10-14T18:07:27.775Z,11.40
2022-10-14T18:09:55.793Z,10.32
2022-10-14T18:12:24.375Z,10.32
2022-10-14T18:14:52.313Z,10.25
2022-10-14T18:17:20.595Z,10.38
2022-10-14T18:19:52.417Z,9.50
2022-10-14T18:22:20.486Z,9.73
2022-10-14T18:24:48.492Z,8.90
2022-10-14T18:27:16.379Z,9.20
2022-10-14T18:29:44.277Z,9.38
2022-10-14T18:32:12.359Z,9.95
2022-10-14T18:34:40.279Z,8.68
2022-10-14T18:37:09.629Z,8.48
2022-10-14T18:39:37.749Z,8.38
2022-10-14T18:42:05.686Z,8.60
2022-10-14T18:44:33.610Z,9.25
2022-10-14T18:47:01.588Z,8.27
2022-10-14T18:49:29.535Z,8.27
2022-10-14T18:51:57.458Z,7.53
2022-10-14T18:54:26.762Z,7.72
2022-10-14T18:56:55.728Z,8.50
2022-10-14T18:59:24.641Z,7.80
2022-10-14T19:01:53.687Z,7.87
2022-10-14T19:04:23.770Z,8.30
2022-10-14T19:09:24.674Z,8.48
2022-10-14T19:11:57.383Z,8.07
2022-10-14T19:14:25.352Z,8.27
2022-10-14T19:16:53.230Z,8.00
2022-10-14T19:19:21.433Z,7.80
2022-10-14T19:21:54.081Z,7.85
2022-10-14T19:24:22.105Z,8.27
2022-10-14T19:26:50.264Z,8.23
2022-10-14T19:29:19.692Z,7.90
2022-10-14T19:31:49.211Z,7.93
2022-10-14T19:36:46.046Z,7.57
2022-10-14T19:39:18.918Z,7.45
2022-10-14T19:41:47.438Z,8.10
2022-10-14T19:44:17.020Z,8.40
2022-10-14T19:46:47.091Z,8.38
2022-10-14T19:49:16.265Z,7.63
2022-10-14T19:51:44.196Z,7.85
2022-10-14T19:54:13.535Z,7.38
2022-10-14T19:56:42.962Z,7.40
2022-10-14T19:59:13.625Z,7.97
2022-10-14T20:01:42.590Z,7.20
2022-10-14T20:04:11.901Z,7.65
2022-10-14T20:06:40.391Z,7.32
2022-10-14T20:09:09.269Z,7.55
2022-10-14T20:11:37.260Z,7.20
2022-10-14T20:14:05.158Z,8.35
2022-10-14T20:16:33.178Z,7.85
2022-10-14T20:19:01.625Z,8.02
2022-10-14T20:21:31.781Z,8.15
2022-10-14T20:24:00.566Z,8.02
2022-10-14T20:26:28.543Z,7.97
2022-10-14T20:28:56.629Z,8.32
2022-10-14T20:31:26.207Z,9.00
2022-10-14T20:33:56.331Z,9.95
2022-10-14T20:36:24.726Z,9.32
2022-10-14T20:38:54.019Z,9.68
2022-10-14T20:41:24.363Z,10.27
2022-10-14T20:43:52.722Z,10.48
2022-10-14T20:46:21.925Z,10.98
2022-10-14T20:48:54.035Z,10.63
2022-10-14T20:51:22.778Z,12.20
2022-10-14T20:53:50.995Z,11.35
2022-10-14T20:56:20.331Z,12.23
2022-10-14T20:58:48.266Z,12.52
2022-10-14T21:01:17.675Z,13.02
2022-10-14T21:03:48.797Z,13.95
2022-10-14T21:06:19.552Z,14.68
2022-10-14T21:11:17.428Z,14.55
2022-10-14T21:13:47.700Z,15.02
2022-10-14T21:16:17.694Z,14.85
2022-10-14T21:18:46.949Z,14.50
2022-10-14T21:21:16.808Z,14.90
2022-10-14T21:23:46.205Z,14.13
2022-10-14T21:26:14.165Z,14.48
2022-10-14T21:28:42.249Z,14.55
2022-10-14T21:31:16.021Z,15.65
2022-10-14T21:33:48.138Z,13.38
2022-10-14T21:36:17.285Z,14.98
2022-10-14T21:38:45.334Z,14.93
2022-10-14T21:41:13.406Z,14.38
2022-10-14T21:43:41.684Z,15.07
2022-10-14T21:46:13.560Z,15.15
2022-10-14T21:48:43.460Z,16.63
2022-10-14T21:53:41.987Z,16.08
2022-10-14T21:56:11.598Z,15.20
2022-10-14T21:58:40.336Z,16.38
2022-10-14T22:01:11.580Z,17.38
2022-10-14T22:03:41.471Z,17.15
2022-10-14T22:06:11.400Z,19.42
2022-10-14T22:08:41.898Z,18.92
2022-10-14T22:11:16.875Z,19.50
2022-10-14T22:13:44.941Z,20.40
2022-10-14T22:16:13.564Z,19.80
2022-10-14T22:18:44.996Z,19.92
2022-10-14T22:21:13.685Z,19.63
2022-10-14T22:23:41.803Z,19.92
2022-10-14T22:26:11.985Z,17.77
2022-10-14T22:28:40.321Z,18.80
2022-10-14T22:31:09.613Z,19.77
2022-10-14T22:33:38.703Z,20.05
2022-10-14T22:36:10.505Z,20.95
2022-10-14T22:38:39.487Z,20.33
2022-10-14T22:41:08.620Z,20.30
2022-10-14T22:43:36.983Z,20.20
2022-10-14T22:46:07.519Z,20.50
2022-10-14T22:51:04.946Z,19.92
2022-10-14T22:53:34.786Z,20.50
2022-10-14T22:58:30.622Z,18.92
2022-10-14T23:01:07.306Z,19.48
2022-10-14T23:03:35.460Z,18.52
2022-10-14T23:06:04.264Z,18.77
2022-10-14T23:08:32.796Z,18.05
2022-10-14T23:11:02.814Z,18.63
2022-10-14T23:13:30.849Z,17.52
2022-10-14T23:15:59.764Z,18.50
2022-10-14T23:18:29.015Z,18.60
2022-10-14T23:20:57.196Z,17.52
2022-10-14T23:23:25.464Z,17.77
2022-10-14T23:25:53.393Z,17.85
2022-10-14T23:28:22.707Z,17.02
2022-10-14T23:30:50.683Z,16.60
2022-10-14T23:33:18.598Z,17.40
2022-10-14T23:35:46.500Z,17.25
2022-10-14T23:38:14.889Z,17.77
2022-10-14T23:40:42.792Z,16.42
2022-10-14T23:43:10.747Z,16.95
2022-10-14T23:45:40.065Z,17.55
2022-10-14T23:48:08.131Z,17.83
2022-10-14T23:50:36.036Z,17.33
2022-10-14T23:53:05.575Z,17.70
2022-10-14T23:55:33.498Z,18.23
2022-10-14T23:58:01.446Z,17.50
